Time;durP1;ratioP1;P1;durP2;ratioP2;P2;SDS_P1;SDS_P2;PMS_P1;PMS_P2;Temp;Humidity;BMP_temperature;BMP_pressure;BME280_temperature;BME280_humidity;BME280_pressure;Samples;Min_cycle;Max_cycle;Signal;HPM_P1;HPM_P2
2023/12/05 00:02:29;;;;;;;11.53;7.30;;;;;0.30;92697.00;;;;7397803;19;20232;-70
2023/12/05 00:05:02;;;;;;;11.87;7.87;;;;;0.30;92703.00;;;;7398071;19;20153;-70
2023/12/05 00:07:30;;;;;;;10.37;6.97;;;;;0.30;92698.00;;;;7399313;19;20129;-72
2023/12/05 00:10:07;;;;;;;12.10;7.77;;;;;0.30;92693.00;;;;7398250;19;20183;-71
2023/12/05 00:12:38;;;;;;;12.77;8.33;;;;;0.30;92687.00;;;;7397833;19;20141;-77
2023/12/05 00:15:12;;;;;;;11.73;7.73;;;;;0.30;92692.00;;;;7395362;19;20499;-76
2023/12/05 00:17:41;;;;;;;14.13;7.93;;;;;0.30;92697.00;;;;7399563;19;20144;-76
2023/12/05 00:20:21;;;;;;;15.17;9.20;;;;;0.30;92699.00;;;;7400002;19;20137;-78
2023/12/05 00:22:49;;;;;;;13.17;8.33;;;;;0.30;92692.00;;;;7398156;19;20653;-77
2023/12/05 00:25:23;;;;;;;16.43;9.30;;;;;0.20;92691.00;;;;7392413;19;20644;-77
2023/12/05 00:27:51;;;;;;;18.10;9.63;;;;;0.20;92686.00;;;;7395343;19;20153;-76
2023/12/05 00:30:19;;;;;;;16.63;9.77;;;;;0.20;92685.00;;;;7397859;19;20613;-76
2023/12/05 00:32:55;;;;;;;20.83;9.67;;;;;0.30;92690.00;;;;7400318;19;20143;-76
2023/12/05 00:35:29;;;;;;;17.37;10.20;;;;;0.30;92692.00;;;;7397885;19;20604;-76
2023/12/05 00:38:04;;;;;;;17.07;10.23;;;;;0.30;92685.00;;;;7397055;19;20679;-75
2023/12/05 00:40:35;;;;;;;16.60;10.73;;;;;0.30;92685.00;;;;7397719;19;20152;-77
2023/12/05 00:43:09;;;;;;;16.07;11.10;;;;;0.20;92680.00;;;;7399385;19;20169;-77
2023/12/05 00:45:36;;;;;;;17.60;10.50;;;;;0.10;92685.00;;;;7397647;19;20465;-75
2023/12/05 00:48:04;;;;;;;19.00;11.07;;;;;0.20;92686.00;;;;7398323;19;20167;-75
2023/12/05 00:50:38;;;;;;;16.87;10.80;;;;;0.10;92685.00;;;;7396912;19;20144;-76
2023/12/05 00:53:15;;;;;;;15.17;9.57;;;;;0.20;92683.00;;;;7397596;19;20647;-75
2023/12/05 00:55:50;;;;;;;18.43;9.87;;;;;0.20;92693.00;;;;7399105;19;20228;-76
2023/12/05 00:58:18;;;;;;;15.40;9.57;;;;;0.30;92694.00;;;;7396489;19;20136;-76
2023/12/05 01:00:52;;;;;;;14.67;8.90;;;;;0.40;92691.00;;;;7397037;19;20145;-75
2023/12/05 01:03:26;;;;;;;14.47;9.03;;;;;0.40;92689.00;;;;7398048;19;20137;-76
2023/12/05 01:06:00;;;;;;;16.67;10.00;;;;;0.30;92689.00;;;;7398698;19;20136;-77
2023/12/05 01:08:29;;;;;;;17.50;9.97;;;;;0.40;92707.00;;;;7404359;19;20166;-76
2023/12/05 01:11:04;;;;;;;13.70;8.50;;;;;0.40;92698.00;;;;7405960;19;20201;-76
2023/12/05 01:13:31;;;;;;;13.23;8.00;;;;;0.50;92704.00;;;;7402749;19;20148;-77
2023/12/05 01:16:03;;;;;;;12.20;6.97;;;;;0.70;92704.00;;;;7403883;19;20622;-76
2023/12/05 01:18:49;;;;;;;9.27;5.60;;;;;0.90;92710.00;;;;7402719;19;20152;-78
2023/12/05 01:21:23;;;;;;;7.57;4.80;;;;;1.00;92710.00;;;;7405656;19;20137;-75
2023/12/05 01:23:59;;;;;;;5.93;3.87;;;;;1.20;92725.00;;;;7405435;19;20140;-71
2023/12/05 01:26:33;;;;;;;5.73;3.50;;;;;1.20;92714.00;;;;7404521;19;20137;-71
2023/12/05 01:29:09;;;;;;;5.00;2.73;;;;;1.30;92726.00;;;;7403778;19;20605;-73
2023/12/05 01:31:38;;;;;;;3.37;2.90;;;;;1.30;92719.00;;;;7403481;19;20143;-71
2023/12/05 01:34:14;;;;;;;3.77;2.57;;;;;1.40;92725.00;;;;7403901;19;20121;-70
2023/12/05 01:36:43;;;;;;;4.23;2.73;;;;;1.50;92729.00;;;;7404258;19;20141;-73
2023/12/05 01:39:17;;;;;;;4.03;2.63;;;;;1.50;92728.00;;;;7403347;19;20129;-72
2023/12/05 01:41:48;;;;;;;3.07;2.20;;;;;1.50;92725.00;;;;7402978;19;20133;-71
2023/12/05 01:44:24;;;;;;;3.23;2.20;;;;;1.60;92724.00;;;;7404675;19;20133;-71
2023/12/05 01:46:59;;;;;;;3.40;2.20;;;;;1.50;92721.00;;;;7403979;19;20203;-72
2023/12/05 01:49:34;;;;;;;4.17;2.43;;;;;1.40;92709.00;;;;7402305;19;20136;-71
2023/12/05 01:52:04;;;;;;;3.23;2.00;;;;;1.40;92713.00;;;;7403811;19;20143;-71
2023/12/05 01:54:39;;;;;;;3.07;1.97;;;;;1.40;92725.00;;;;7404163;19;20124;-71
2023/12/05 01:57:16;;;;;;;3.37;2.10;;;;;1.30;92719.00;;;;7403512;19;20133;-71
2023/12/05 01:59:55;;;;;;;3.50;2.20;;;;;1.20;92722.00;;;;7402228;19;20137;-71
2023/12/05 02:02:31;;;;;;;3.07;2.20;;;;;1.20;92704.00;;;;7403328;19;20137;-71
2023/12/05 02:04:59;;;;;;;4.47;2.27;;;;;1.20;92709.00;;;;7401921;19;20143;-73
2023/12/05 02:07:28;;;;;;;3.10;2.30;;;;;1.10;92706.00;;;;7403009;19;20165;-70
2023/12/05 02:10:04;;;;;;;2.43;1.93;;;;;0.90;92712.00;;;;7403350;19;20600;-71
2023/12/05 02:12:32;;;;;;;3.97;2.27;;;;;1.20;92711.00;;;;7401679;19;20149;-71
2023/12/05 02:15:07;;;;;;;4.07;2.10;;;;;1.20;92712.00;;;;7403208;19;20132;-71
2023/12/05 02:18:09;;;;;;;5.20;2.27;;;;;1.20;92709.00;;;;7401721;19;20132;-71
2023/12/05 02:21:04;;;;;;;2.80;1.80;;;;;1.10;92720.00;;;;7399269;19;20495;-70
2023/12/05 02:24:01;;;;;;;2.53;2.20;;;;;1.20;92732.00;;;;7402725;19;20129;-72
2023/12/05 02:26:52;;;;;;;2.70;1.93;;;;;1.20;92719.00;;;;7402462;19;20472;-72
2023/12/05 02:29:19;;;;;;;5.33;2.40;;;;;1.30;92716.00;;;;7403074;19;20135;-70
2023/12/05 02:31:54;;;;;;;2.37;2.03;;;;;1.30;92723.00;;;;7402320;19;20160;-75
2023/12/05 02:34:30;;;;;;;2.33;2.00;;;;;1.40;92712.00;;;;7401693;19;20485;-74
2023/12/05 02:37:43;;;;;;;3.77;2.10;;;;;1.30;92731.00;;;;7403139;19;20196;-73
2023/12/05 02:40:38;;;;;;;3.67;2.20;;;;;1.40;92733.00;;;;7400881;19;20188;-75
2023/12/05 02:43:14;;;;;;;2.30;1.93;;;;;1.50;92744.00;;;;7402277;19;20128;-74
2023/12/05 02:45:51;;;;;;;2.40;2.10;;;;;1.50;92739.00;;;;7402047;19;20176;-74
2023/12/05 02:48:40;;;;;;;3.27;2.50;;;;;1.50;92748.00;;;;7402050;19;20197;-74
2023/12/05 02:51:19;;;;;;;4.60;2.23;;;;;1.40;92745.00;;;;7402628;19;20595;-75
2023/12/05 02:53:53;;;;;;;3.80;2.10;;;;;1.10;92746.00;;;;7400785;19;20155;-75
2023/12/05 02:56:31;;;;;;;6.67;3.00;;;;;1.20;92737.00;;;;7401979;19;20480;-74
2023/12/05 02:58:59;;;;;;;5.87;3.57;;;;;1.10;92743.00;;;;7397330;19;20132;-74
2023/12/05 03:01:26;;;;;;;6.07;3.80;;;;;1.10;92746.00;;;;7398536;19;20152;-73
2023/12/05 03:04:03;;;;;;;11.30;4.87;;;;;1.00;92738.00;;;;7402524;19;20136;-73
2023/12/05 03:06:35;;;;;;;11.47;5.80;;;;;0.90;92749.00;;;;7402115;19;20621;-75
2023/12/05 03:09:08;;;;;;;11.30;6.53;;;;;0.80;92756.00;;;;7399778;19;20488;-75
2023/12/05 03:11:45;;;;;;;10.63;6.87;;;;;0.90;92755.00;;;;7400653;19;20141;-75
2023/12/05 03:14:14;;;;;;;14.73;8.87;;;;;0.80;92750.00;;;;7398188;19;20193;-75
2023/12/05 03:16:47;;;;;;;14.77;8.67;;;;;0.80;92750.00;;;;7400349;19;20128;-74
2023/12/05 03:19:28;;;;;;;21.83;10.00;;;;;0.70;92749.00;;;;7398387;19;20719;-74
2023/12/05 03:22:03;;;;;;;15.10;8.63;;;;;0.60;92746.00;;;;7401498;19;20196;-73
2023/12/05 03:24:37;;;;;;;18.87;10.00;;;;;0.60;92751.00;;;;7401866;19;20475;-76
2023/12/05 03:27:13;;;;;;;18.00;10.33;;;;;0.50;92753.00;;;;7400741;19;20125;-74
2023/12/05 03:29:51;;;;;;;21.27;10.17;;;;;0.50;92754.00;;;;7397690;19;20156;-73
2023/12/05 03:32:25;;;;;;;20.80;10.50;;;;;0.50;92762.00;;;;7400013;19;20148;-75
2023/12/05 03:34:59;;;;;;;17.20;9.23;;;;;0.50;92758.00;;;;7399671;19;20141;-74
2023/12/05 03:37:26;;;;;;;16.33;10.23;;;;;0.50;92752.00;;;;7400587;19;20184;-75
2023/12/05 03:40:01;;;;;;;20.03;10.87;;;;;0.50;92755.00;;;;7398311;19;20136;-73
2023/12/05 03:42:28;;;;;;;23.37;11.90;;;;;0.60;92751.00;;;;7398922;19;20145;-74
2023/12/05 03:45:03;;;;;;;24.37;11.93;;;;;0.60;92753.00;;;;7399895;19;20152;-75
2023/12/05 03:47:32;;;;;;;26.73;12.53;;;;;0.60;92755.00;;;;7398427;19;20125;-74
2023/12/05 03:50:07;;;;;;;30.63;12.97;;;;;0.60;92757.00;;;;7400617;19;20605;-73
2023/12/05 03:52:42;;;;;;;25.57;12.17;;;;;0.70;92751.00;;;;7398796;19;20588;-75
2023/12/05 03:55:16;;;;;;;27.03;12.43;;;;;0.70;92760.00;;;;7397114;19;20124;-75
2023/12/05 03:57:53;;;;;;;23.43;11.30;;;;;0.80;92767.00;;;;7399111;19;20199;-76
2023/12/05 04:00:26;;;;;;;19.40;10.83;;;;;0.90;92764.00;;;;7399543;19;20117;-74
2023/12/05 04:03:00;;;;;;;19.37;10.77;;;;;1.00;92763.00;;;;7400326;19;20592;-75
2023/12/05 04:05:27;;;;;;;22.97;10.53;;;;;0.90;92776.00;;;;7399703;19;20121;-76
2023/12/05 04:08:02;;;;;;;18.90;9.80;;;;;0.90;92776.00;;;;7399777;19;20121;-75
2023/12/05 04:10:34;;;;;;;19.03;9.37;;;;;0.90;92761.00;;;;7399539;19;20129;-73
2023/12/05 04:13:12;;;;;;;18.17;9.37;;;;;1.00;92771.00;;;;7394539;19;20153;-74
2023/12/05 04:15:41;;;;;;;15.70;9.00;;;;;1.00;92764.00;;;;7398693;19;20626;-74
2023/12/05 04:18:28;;;;;;;15.67;8.90;;;;;0.80;92762.00;;;;7395389;19;20502;-76
2023/12/05 04:21:02;;;;;;;13.13;7.30;;;;;0.90;92766.00;;;;7398647;19;20139;-75
2023/12/05 04:23:37;;;;;;;17.67;8.20;;;;;0.80;92776.00;;;;7398461;19;20143;-75
2023/12/05 04:26:06;;;;;;;12.97;7.40;;;;;0.70;92769.00;;;;7397737;19;20629;-74
2023/12/05 04:28:40;;;;;;;15.80;8.43;;;;;0.70;92776.00;;;;7398489;19;20200;-74
2023/12/05 04:31:15;;;;;;;16.23;8.30;;;;;0.70;92776.00;;;;7397746;19;20136;-74
2023/12/05 04:33:53;;;;;;;21.23;9.97;;;;;0.80;92775.00;;;;7399221;19;20168;-74
2023/12/05 04:36:27;;;;;;;18.37;9.40;;;;;0.80;92769.00;;;;7399058;19;20572;-74
2023/12/05 04:38:54;;;;;;;18.53;8.83;;;;;0.70;92770.00;;;;7398877;19;20133;-75
2023/12/05 04:41:33;;;;;;;17.13;9.57;;;;;0.90;92783.00;;;;7395346;19;20644;-74
2023/12/05 04:44:10;;;;;;;19.87;10.07;;;;;1.10;92778.00;;;;7398270;19;20121;-75
2023/12/05 04:46:38;;;;;;;18.70;10.07;;;;;1.10;92774.00;;;;7398759;19;20608;-73
2023/12/05 04:49:12;;;;;;;23.30;9.90;;;;;1.10;92784.00;;;;7398897;19;20629;-75
2023/12/05 04:51:47;;;;;;;20.27;9.20;;;;;1.20;92787.00;;;;7397214;19;20147;-74
2023/12/05 04:54:21;;;;;;;19.23;9.47;;;;;1.00;92784.00;;;;7400310;19;20136;-78
2023/12/05 04:56:55;;;;;;;22.77;9.97;;;;;1.20;92792.00;;;;7399095;19;20147;-78
2023/12/05 04:59:30;;;;;;;16.90;9.07;;;;;1.30;92789.00;;;;7399159;19;20465;-75
2023/12/05 05:02:04;;;;;;;20.23;9.57;;;;;1.20;92777.00;;;;7398025;19;20125;-75
2023/12/05 05:04:34;;;;;;;18.27;9.57;;;;;1.20;92783.00;;;;7399694;19;20117;-78
2023/12/05 05:07:09;;;;;;;17.50;8.57;;;;;1.20;92777.00;;;;7397909;19;20153;-78
2023/12/05 05:09:40;;;;;;;18.47;9.93;;;;;1.20;92787.00;;;;7398175;19;20133;-78
2023/12/05 05:12:14;;;;;;;16.13;8.83;;;;;1.20;92784.00;;;;7398924;19;20140;-77
2023/12/05 05:14:43;;;;;;;18.93;7.97;;;;;1.10;92786.00;;;;7399741;19;20121;-76
2023/12/05 05:17:17;;;;;;;20.03;9.03;;;;;1.20;92789.00;;;;7399286;19;20125;-76
2023/12/05 05:19:47;;;;;;;18.87;8.53;;;;;1.00;92794.00;;;;7396828;19;20145;-77
2023/12/05 05:22:28;;;;;;;16.90;8.60;;;;;1.10;92787.00;;;;7395794;19;20154;-76
2023/12/05 05:24:56;;;;;;;20.20;8.60;;;;;1.00;92786.00;;;;7397732;19;20139;-75
2023/12/05 05:27:33;;;;;;;14.33;7.70;;;;;1.20;92784.00;;;;7398554;19;20619;-77
2023/12/05 05:30:11;;;;;;;12.60;7.23;;;;;1.10;92789.00;;;;7397565;19;20597;-78
2023/12/05 05:32:39;;;;;;;15.03;7.77;;;;;1.10;92795.00;;;;7398411;19;20121;-77
2023/12/05 05:35:08;;;;;;;14.80;8.33;;;;;1.30;92795.00;;;;7398389;19;20150;-76
2023/12/05 05:37:42;;;;;;;19.63;8.37;;;;;1.20;92788.00;;;;7398445;19;20135;-78
2023/12/05 05:40:16;;;;;;;13.27;7.83;;;;;1.10;92788.00;;;;7396876;19;20501;-78
2023/12/05 05:42:50;;;;;;;13.50;7.17;;;;;1.10;92792.00;;;;7395950;19;20125;-77
2023/12/05 05:45:27;;;;;;;15.17;6.67;;;;;1.10;92790.00;;;;7398168;19;20129;-77
2023/12/05 05:48:01;;;;;;;14.90;7.53;;;;;1.10;92785.00;;;;7396286;19;20615;-77
2023/12/05 05:50:40;;;;;;;18.73;7.33;;;;;0.80;92807.00;;;;7387255;19;21366;-76
2023/12/05 05:53:09;;;;;;;15.67;7.33;;;;;0.90;92799.00;;;;7390176;19;20616;-78
2023/12/05 05:55:44;;;;;;;14.33;7.23;;;;;1.00;92800.00;;;;7393194;19;20154;-79
2023/12/05 05:58:12;;;;;;;16.33;6.87;;;;;1.00;92801.00;;;;7392409;19;20133;-76
2023/12/05 06:00:46;;;;;;;14.93;7.07;;;;;0.90;92800.00;;;;7390961;19;20608;-78
2023/12/05 06:03:23;;;;;;;16.80;7.20;;;;;1.00;92801.00;;;;7390518;19;20144;-74
2023/12/05 06:05:58;;;;;;;18.13;7.70;;;;;0.90;92797.00;;;;7391371;19;20141;-75
2023/12/05 06:08:30;;;;;;;16.60;7.27;;;;;1.00;92799.00;;;;7390032;19;20521;-74
2023/12/05 06:11:06;;;;;;;14.93;7.43;;;;;0.90;92803.00;;;;7390692;19;20156;-73
2023/12/05 06:13:33;;;;;;;20.30;8.27;;;;;0.90;92794.00;;;;7390817;19;20160;-74
2023/12/05 06:16:08;;;;;;;17.33;7.93;;;;;0.70;92786.00;;;;7391714;19;20133;-73
2023/12/05 06:18:50;;;;;;;15.80;7.87;;;;;0.70;92779.00;;;;7389342;19;20187;-74
2023/12/05 06:21:26;;;;;;;15.03;7.33;;;;;0.50;92779.00;;;;7390631;19;20148;-75
2023/12/05 06:24:00;;;;;;;15.43;6.93;;;;;0.50;92784.00;;;;7391907;19;20141;-76
2023/12/05 06:26:31;;;;;;;12.97;6.73;;;;;0.70;92786.00;;;;7392135;19;20517;-74
2023/12/05 06:29:08;;;;;;;16.80;7.60;;;;;0.50;92802.00;;;;7390100;19;20136;-73
2023/12/05 06:31:35;;;;;;;11.63;6.57;;;;;0.40;92806.00;;;;7391437;19;20135;-75
2023/12/05 06:34:14;;;;;;;15.23;6.57;;;;;0.50;92814.00;;;;7391005;19;20132;-74
2023/12/05 06:36:41;;;;;;;13.43;6.73;;;;;0.40;92814.00;;;;7391568;19;20137;-74
2023/12/05 06:39:15;;;;;;;14.63;6.43;;;;;0.50;92811.00;;;;7391402;19;20484;-74
2023/12/05 06:41:46;;;;;;;13.50;6.60;;;;;0.60;92803.00;;;;7389910;19;20148;-77
2023/12/05 06:44:21;;;;;;;23.70;8.33;;;;;0.40;92816.00;;;;7389682;19;20148;-73
2023/12/05 06:46:55;;;;;;;24.83;8.57;;;;;0.30;92812.00;;;;7390232;19;20160;-74
2023/12/05 06:49:29;;;;;;;122.80;12.07;;;;;0.30;92811.00;;;;7389586;19;20597;-74
2023/12/05 06:52:05;;;;;;;634.30;37.80;;;;;0.40;92821.00;;;;7391375;19;20133;-78
2023/12/05 06:54:32;;;;;;;525.67;35.80;;;;;0.50;92817.00;;;;7389705;19;20174;-75
2023/12/05 06:57:06;;;;;;;728.17;45.40;;;;;0.50;92815.00;;;;7390762;19;20139;-75
2023/12/05 06:59:35;;;;;;;650.20;46.97;;;;;0.50;92818.00;;;;7389623;19;20132;-75
2023/12/05 07:02:09;;;;;;;445.27;29.10;;;;;0.50;92827.00;;;;7389346;19;20611;-76
2023/12/05 07:04:44;;;;;;;235.67;20.70;;;;;0.50;92825.00;;;;7390042;19;20143;-73
2023/12/05 07:07:18;;;;;;;25.20;9.67;;;;;0.80;92833.00;;;;7388071;19;20128;-75
2023/12/05 07:09:46;;;;;;;19.37;9.83;;;;;0.90;92830.00;;;;7390802;19;20132;-75
2023/12/05 07:12:22;;;;;;;21.93;9.97;;;;;0.90;92838.00;;;;7388569;19;20561;-73
2023/12/05 07:14:49;;;;;;;16.33;8.63;;;;;0.90;92840.00;;;;7386635;19;20158;-75
2023/12/05 07:17:22;;;;;;;19.73;8.97;;;;;1.00;92840.00;;;;7382241;19;20616;-73
2023/12/05 07:20:04;;;;;;;18.00;8.70;;;;;1.10;92836.00;;;;7382124;19;20225;-73
2023/12/05 07:22:33;;;;;;;16.00;7.57;;;;;1.30;92832.00;;;;7382567;19;20128;-74
2023/12/05 07:25:07;;;;;;;15.60;7.33;;;;;1.30;92839.00;;;;7382438;19;20132;-78
2023/12/05 07:27:41;;;;;;;16.43;7.43;;;;;1.30;92843.00;;;;7382759;19;20685;-76
2023/12/05 07:30:16;;;;;;;20.33;7.07;;;;;1.40;92843.00;;;;7384496;19;20728;-73
2023/12/05 07:32:51;;;;;;;10.37;6.37;;;;;1.50;92847.00;;;;7387306;19;20148;-76
2023/12/05 07:35:22;;;;;;;14.00;6.30;;;;;1.60;92851.00;;;;7386846;19;20156;-74
2023/12/05 07:38:00;;;;;;;13.77;6.10;;;;;1.70;92850.00;;;;7388069;19;20145;-76
2023/12/05 07:40:32;;;;;;;11.90;5.37;;;;;1.60;92854.00;;;;7388486;19;20137;-75
2023/12/05 07:43:07;;;;;;;12.30;5.67;;;;;2.00;92846.00;;;;7386971;19;20128;-77
2023/12/05 07:45:41;;;;;;;7.87;4.70;;;;;2.30;92857.00;;;;7386666;19;20155;-74
2023/12/05 07:48:15;;;;;;;12.13;4.23;;;;;2.50;92862.00;;;;7388376;19;20129;-75
2023/12/05 07:50:43;;;;;;;9.67;4.43;;;;;2.40;92861.00;;;;7387929;19;20591;-75
2023/12/05 07:53:18;;;;;;;13.13;4.67;;;;;2.40;92867.00;;;;7384746;19;20145;-75
2023/12/05 07:55:45;;;;;;;11.97;4.47;;;;;2.30;92864.00;;;;7387486;19;20597;-76
2023/12/05 07:58:20;;;;;;;10.57;4.17;;;;;2.40;92863.00;;;;7385491;19;20156;-74
2023/12/05 08:01:11;;;;;;;9.10;4.23;;;;;2.20;92856.00;;;;7387402;19;20188;-74
2023/12/05 08:03:53;;;;;;;9.70;4.87;;;;;2.30;92863.00;;;;7385407;19;20516;-74
2023/12/05 08:06:21;;;;;;;11.67;4.63;;;;;2.60;92862.00;;;;7387298;19;20152;-75
2023/12/05 08:08:55;;;;;;;5.93;4.10;;;;;2.70;92857.00;;;;7387980;19;20129;-76
2023/12/05 08:11:23;;;;;;;10.67;4.20;;;;;2.90;92859.00;;;;7385296;19;20129;-76
2023/12/05 08:13:57;;;;;;;5.60;3.50;;;;;2.80;92869.00;;;;7386902;19;20156;-75
2023/12/05 08:16:29;;;;;;;8.33;3.57;;;;;2.70;92884.00;;;;7386377;19;20143;-76
2023/12/05 08:19:09;;;;;;;8.67;3.47;;;;;2.50;92880.00;;;;7386655;19;20608;-75
2023/12/05 08:21:52;;;;;;;5.97;3.17;;;;;2.40;92878.00;;;;7386025;19;20144;-76
2023/12/05 08:24:19;;;;;;;7.40;3.00;;;;;2.50;92879.00;;;;7385130;19;20156;-74
2023/12/05 08:26:54;;;;;;;9.70;2.93;;;;;2.60;92890.00;;;;7385456;19;20144;-75
2023/12/05 08:29:30;;;;;;;8.70;2.87;;;;;2.50;92887.00;;;;7386056;19;20614;-73
2023/12/05 08:31:58;;;;;;;6.20;2.60;;;;;2.50;92891.00;;;;7386011;19;20196;-74
2023/12/05 08:34:33;;;;;;;3.93;2.27;;;;;2.60;92889.00;;;;7385447;19;20494;-73
2023/12/05 08:37:03;;;;;;;4.90;2.40;;;;;2.50;92887.00;;;;7386335;19;20208;-74
2023/12/05 08:39:40;;;;;;;8.53;3.00;;;;;2.50;92884.00;;;;7384832;19;20160;-72
2023/12/05 08:42:15;;;;;;;4.77;2.43;;;;;2.60;92897.00;;;;7384673;19;20145;-73
2023/12/05 08:44:48;;;;;;;12.33;2.77;;;;;2.60;92900.00;;;;7384910;19;20149;-75
2023/12/05 08:47:19;;;;;;;6.20;2.23;;;;;2.70;92895.00;;;;7386058;19;20216;-71
2023/12/05 08:49:54;;;;;;;7.73;2.53;;;;;2.70;92890.00;;;;7386725;19;20505;-71
2023/12/05 08:52:22;;;;;;;6.53;2.20;;;;;2.90;92901.00;;;;7384661;19;20155;-73
2023/12/05 08:54:56;;;;;;;4.83;1.90;;;;;3.00;92894.00;;;;7385510;19;20184;-74
2023/12/05 08:57:23;;;;;;;2.70;2.17;;;;;2.90;92901.00;;;;7384208;19;20133;-73
2023/12/05 08:59:58;;;;;;;3.27;1.63;;;;;2.90;92900.00;;;;7386275;19;20135;-74
2023/12/05 09:02:33;;;;;;;6.30;2.17;;;;;2.90;92883.00;;;;7383076;19;20499;-74
2023/12/05 09:05:01;;;;;;;8.77;1.80;;;;;2.80;92889.00;;;;7385770;19;20619;-73
2023/12/05 09:07:37;;;;;;;3.27;1.63;;;;;2.70;92890.00;;;;7385169;19;20591;-73
2023/12/05 09:10:15;;;;;;;5.30;1.87;;;;;2.60;92897.00;;;;7386348;19;20648;-75
2023/12/05 09:12:50;;;;;;;5.63;1.80;;;;;2.70;92895.00;;;;7384795;19;20163;-73
2023/12/05 09:15:24;;;;;;;5.30;1.67;;;;;2.80;92888.00;;;;7384089;19;20156;-73
2023/12/05 09:17:52;;;;;;;3.80;1.53;;;;;2.90;92894.00;;;;7384864;19;20153;-74
2023/12/05 09:20:35;;;;;;;2.30;1.03;;;;;2.80;92894.00;;;;7384420;19;20164;-73
2023/12/05 09:23:11;;;;;;;4.83;1.33;;;;;3.00;92896.00;;;;7384534;19;20482;-73
2023/12/05 09:25:41;;;;;;;4.23;1.30;;;;;3.80;92895.00;;;;7383934;19;20129;-73
2023/12/05 09:28:15;;;;;;;6.87;1.70;;;;;4.30;92876.00;;;;7388149;19;20129;-76
2023/12/05 09:30:44;;;;;;;3.23;1.20;;;;;4.70;92901.00;;;;7389451;19;20597;-74
2023/12/05 09:33:21;;;;;;;5.20;1.40;;;;;4.10;92891.00;;;;7389718;19;20171;-76
2023/12/05 09:35:55;;;;;;;2.83;1.27;;;;;3.80;92902.00;;;;7392021;19;20581;-76
2023/12/05 09:38:31;;;;;;;3.10;1.10;;;;;4.20;92890.00;;;;7391008;19;20511;-73
2023/12/05 09:40:59;;;;;;;2.50;1.10;;;;;4.50;92912.00;;;;7391002;19;20129;-77
2023/12/05 09:43:39;;;;;;;2.53;1.10;;;;;4.20;92907.00;;;;7389072;19;20153;-74
2023/12/05 09:46:13;;;;;;;1.13;0.77;;;;;4.00;92899.00;;;;7389083;19;20137;-76
2023/12/05 09:48:55;;;;;;;3.23;0.90;;;;;5.20;92903.00;;;;7389583;19;20616;-74
2023/12/05 09:51:24;;;;;;;2.57;0.90;;;;;5.50;92876.00;;;;7390727;19;20133;-77
2023/12/05 09:54:04;;;;;;;1.50;0.90;;;;;5.70;92906.00;;;;7390824;19;20632;-75
2023/12/05 09:56:33;;;;;;;6.20;1.00;;;;;6.40;92880.00;;;;7388337;19;20139;-75
2023/12/05 09:59:10;;;;;;;1.20;0.70;;;;;6.70;92878.00;;;;7388201;19;20139;-75
2023/12/05 10:01:47;;;;;;;1.27;0.80;;;;;7.10;92891.00;;;;7388338;19;20132;-77
2023/12/05 10:04:25;;;;;;;1.63;0.70;;;;;6.90;92891.00;;;;7387982;19;20129;-74
2023/12/05 10:07:00;;;;;;;3.00;0.80;;;;;6.30;92910.00;;;;7389519;19;20172;-74
2023/12/05 10:09:34;;;;;;;1.57;0.70;;;;;5.10;92918.00;;;;7389917;19;20467;-76
2023/12/05 10:12:10;;;;;;;2.03;0.87;;;;;4.40;92905.00;;;;7388205;19;20159;-76
2023/12/05 10:14:47;;;;;;;3.83;0.93;;;;;4.20;92912.00;;;;7388253;19;20627;-77
2023/12/05 10:17:15;;;;;;;1.07;0.67;;;;;3.90;92900.00;;;;7391418;19;20205;-76
2023/12/05 10:20:04;;;;;;;4.07;0.83;;;;;4.50;92907.00;;;;7389617;19;20643;-77
2023/12/05 10:22:40;;;;;;;2.60;0.90;;;;;4.00;92901.00;;;;7390428;19;20202;-77
2023/12/05 10:25:15;;;;;;;1.80;0.93;;;;;4.20;92905.00;;;;7388577;19;20151;-77
2023/12/05 10:27:43;;;;;;;0.57;0.43;;;;;4.20;92908.00;;;;7389683;19;20157;-77
2023/12/05 10:30:32;;;;;;;3.23;1.00;;;;;3.80;92911.00;;;;7389557;19;20128;-77
2023/12/05 10:33:17;;;;;;;2.73;0.90;;;;;3.80;92902.00;;;;7389863;19;20149;-77
2023/12/05 10:35:51;;;;;;;2.40;0.90;;;;;3.70;92906.00;;;;7389237;19;20651;-79
2023/12/05 10:38:19;;;;;;;3.20;0.97;;;;;3.70;92900.00;;;;7388225;19;20136;-78
2023/12/05 10:40:52;;;;;;;1.77;0.70;;;;;3.70;92901.00;;;;7389716;19;20192;-78
2023/12/05 10:43:28;;;;;;;2.93;0.90;;;;;3.90;92887.00;;;;7388049;19;20527;-75
2023/12/05 10:46:05;;;;;;;0.87;0.53;;;;;3.80;92876.00;;;;7389597;19;20133;-76
2023/12/05 10:48:45;;;;;;;1.77;0.80;;;;;4.60;92894.00;;;;7385518;19;20553;-74
2023/12/05 10:51:17;;;;;;;1.00;0.70;;;;;4.60;92883.00;;;;7388099;19;20514;-76
2023/12/05 10:53:52;;;;;;;1.13;0.60;;;;;4.30;92884.00;;;;7387368;19;20155;-75
2023/12/05 10:56:29;;;;;;;1.20;0.70;;;;;4.90;92885.00;;;;7388757;19;20129;-75
2023/12/05 10:59:03;;;;;;;3.07;1.00;;;;;5.30;92870.00;;;;7388143;19;20136;-74
2023/12/05 11:01:40;;;;;;;1.90;0.93;;;;;5.80;92856.00;;;;7388219;19;20505;-75
2023/12/05 11:04:13;;;;;;;0.60;0.60;;;;;6.70;92843.00;;;;7388167;19;20129;-74
2023/12/05 11:06:50;;;;;;;2.00;0.70;;;;;6.70;92849.00;;;;7388539;19;20143;-74
2023/12/05 11:09:18;;;;;;;1.13;0.63;;;;;7.00;92858.00;;;;7387909;19;20133;-76
2023/12/05 11:11:50;;;;;;;2.43;0.80;;;;;7.00;92838.00;;;;7388102;19;20129;-75
2023/12/05 11:14:30;;;;;;;0.73;0.50;;;;;6.60;92828.00;;;;7388045;19;20595;-76
2023/12/05 11:17:09;;;;;;;0.70;0.60;;;;;7.30;92831.00;;;;7386875;19;20163;-76
2023/12/05 11:19:51;;;;;;;1.43;0.70;;;;;8.00;92828.00;;;;7386756;19;20670;-75
2023/12/05 11:23:09;;;;;;;0.80;0.50;;;;;8.30;92839.00;;;;7386807;19;20149;-75
2023/12/05 11:26:11;;;;;;;0.60;0.40;;;;;8.20;92874.00;;;;7386776;19;20133;-75
2023/12/05 11:29:17;;;;;;;0.50;0.50;;;;;6.50;92846.00;;;;7387907;19;20129;-75
2023/12/05 11:32:10;;;;;;;1.30;0.60;;;;;7.70;92844.00;;;;7386986;19;20591;-76
2023/12/05 11:35:09;;;;;;;2.33;0.50;;;;;7.70;92878.00;;;;7386485;19;20513;-75
2023/12/05 11:37:53;;;;;;;2.47;0.50;;;;;7.00;92876.00;;;;7388426;19;20129;-76
2023/12/05 11:40:27;;;;;;;0.90;0.57;;;;;6.10;92879.00;;;;7388986;19;20132;-75
2023/12/05 11:43:05;;;;;;;0.83;0.73;;;;;5.40;92866.00;;;;7385951;19;20129;-74
2023/12/05 11:45:46;;;;;;;2.10;0.60;;;;;5.30;92858.00;;;;7387370;19;20600;-77
2023/12/05 11:48:33;;;;;;;2.37;0.70;;;;;5.90;92860.00;;;;7386756;19;20133;-76
2023/12/05 11:51:11;;;;;;;0.77;0.53;;;;;5.80;92867.00;;;;7386800;19;20593;-77
2023/12/05 11:53:49;;;;;;;1.80;0.43;;;;;5.90;92871.00;;;;7387934;19;20612;-78
2023/12/05 11:56:24;;;;;;;2.57;0.60;;;;;5.60;92882.00;;;;7387810;19;20620;-80
2023/12/05 11:58:52;;;;;;;0.80;0.53;;;;;5.00;92873.00;;;;7387751;19;20637;-80
2023/12/05 12:01:29;;;;;;;1.40;0.60;;;;;4.60;92864.00;;;;7390093;19;20132;-77
2023/12/05 12:03:59;;;;;;;1.10;0.60;;;;;5.70;92861.00;;;;7387774;19;20165;-78
2023/12/05 12:06:34;;;;;;;2.30;0.60;;;;;6.70;92844.00;;;;7388861;19;20593;-79
2023/12/05 12:09:10;;;;;;;1.10;0.70;;;;;7.70;92839.00;;;;7387649;19;20204;-80
2023/12/05 12:11:44;;;;;;;0.97;0.37;;;;;7.20;92866.00;;;;7388702;19;20192;-78
2023/12/05 12:14:13;;;;;;;0.70;0.40;;;;;6.60;92871.00;;;;7387070;19;20632;-78
2023/12/05 12:16:51;;;;;;;2.23;0.80;;;;;8.00;92837.00;;;;7387909;19;20480;-80
2023/12/05 12:19:21;;;;;;;0.63;0.53;;;;;8.30;92856.00;;;;7387269;19;20496;-79
2023/12/05 12:22:02;;;;;;;2.63;0.90;;;;;8.90;92845.00;;;;7387241;19;20125;-78
2023/12/05 12:24:32;;;;;;;1.27;0.57;;;;;8.60;92854.00;;;;7386085;19;20156;-78
2023/12/05 12:27:07;;;;;;;0.70;0.50;;;;;9.00;92860.00;;;;7386105;19;20604;-78
2023/12/05 12:29:53;;;;;;;0.77;0.60;;;;;7.50;92885.00;;;;7385929;19;20128;-78
2023/12/05 12:32:27;;;;;;;2.37;1.00;;;;;6.60;92880.00;;;;7388537;19;20608;-78
2023/12/05 12:35:01;;;;;;;2.00;0.70;;;;;6.00;92896.00;;;;7386806;19;20152;-78
2023/12/05 12:37:30;;;;;;;1.77;0.70;;;;;5.70;92900.00;;;;7386644;19;20152;-79
2023/12/05 12:40:18;;;;;;;1.87;0.67;;;;;5.40;92898.00;;;;7388824;19;20469;-79
2023/12/05 12:42:51;;;;;;;2.17;0.77;;;;;4.90;92895.00;;;;7386033;19;20612;-76
2023/12/05 12:45:27;;;;;;;2.07;0.80;;;;;5.00;92896.00;;;;7387004;19;20140;-81
2023/12/05 12:47:58;;;;;;;4.90;1.37;;;;;4.60;92910.00;;;;7387549;19;20132;-75
2023/12/05 12:50:34;;;;;;;2.77;1.07;;;;;4.40;92891.00;;;;7387546;19;20152;-78
2023/12/05 12:53:02;;;;;;;2.10;0.90;;;;;4.20;92895.00;;;;7388495;19;20132;-78
2023/12/05 12:55:37;;;;;;;2.63;0.90;;;;;4.10;92896.00;;;;7387776;19;20647;-77
2023/12/05 12:58:05;;;;;;;2.40;1.00;;;;;4.20;92903.00;;;;7387472;19;20479;-76
2023/12/05 13:00:40;;;;;;;1.90;0.93;;;;;4.20;92903.00;;;;7388392;19;20148;-80